sensor_id;sensor_type;location;lat;lon;timestamp;temperature;humidity
19536;HTU21D;9913;51.168;4.124;2022-08-19T00:00:04;17.91;87.93
19536;HTU21D;9913;51.168;4.124;2022-08-19T00:02:34;17.93;87.99
19536;HTU21D;9913;51.168;4.124;2022-08-19T00:05:17;17.87;87.90
19536;HTU21D;9913;51.168;4.124;2022-08-19T00:07:46;17.78;88.29
19536;HTU21D;9913;51.168;4.124;2022-08-19T00:10:16;17.69;88.60
19536;HTU21D;9913;51.168;4.124;2022-08-19T00:12:49;17.67;88.76
19536;HTU21D;9913;51.168;4.124;2022-08-19T00:15:19;17.64;89.11
19536;HTU21D;9913;51.168;4.124;2022-08-19T00:17:50;17.63;89.33
19536;HTU21D;9913;51.168;4.124;2022-08-19T00:20:25;17.58;89.45
19536;HTU21D;9913;51.168;4.124;2022-08-19T00:22:54;17.59;89.67
19536;HTU21D;9913;51.168;4.124;2022-08-19T00:25:30;17.64;89.70
19536;HTU21D;9913;51.168;4.124;2022-08-19T00:28:04;17.68;89.89
19536;HTU21D;9913;51.168;4.124;2022-08-19T00:30:32;17.64;89.82
19536;HTU21D;9913;51.168;4.124;2022-08-19T00:33:00;17.55;90.02
19536;HTU21D;9913;51.168;4.124;2022-08-19T00:35:31;17.58;90.17
19536;HTU21D;9913;51.168;4.124;2022-08-19T00:38:02;17.68;90.34
19536;HTU21D;9913;51.168;4.124;2022-08-19T00:40:35;17.70;90.31
19536;HTU21D;9913;51.168;4.124;2022-08-19T00:43:10;17.68;90.21
19536;HTU21D;9913;51.168;4.124;2022-08-19T00:45:43;17.66;90.21
19536;HTU21D;9913;51.168;4.124;2022-08-19T00:48:11;17.63;90.21
19536;HTU21D;9913;51.168;4.124;2022-08-19T00:50:43;17.53;90.31
19536;HTU21D;9913;51.168;4.124;2022-08-19T00:53:23;17.62;90.63
19536;HTU21D;9913;51.168;4.124;2022-08-19T00:55:55;17.59;90.64
19536;HTU21D;9913;51.168;4.124;2022-08-19T00:58:27;17.61;90.52
19536;HTU21D;9913;51.168;4.124;2022-08-19T01:00:57;17.72;90.26
19536;HTU21D;9913;51.168;4.124;2022-08-19T01:03:25;17.74;89.91
19536;HTU21D;9913;51.168;4.124;2022-08-19T01:05:55;17.75;89.83
19536;HTU21D;9913;51.168;4.124;2022-08-19T01:08:27;17.85;89.64
19536;HTU21D;9913;51.168;4.124;2022-08-19T01:10:59;17.89;89.38
19536;HTU21D;9913;51.168;4.124;2022-08-19T01:13:33;17.80;89.42
19536;HTU21D;9913;51.168;4.124;2022-08-19T01:16:17;17.78;89.12
19536;HTU21D;9913;51.168;4.124;2022-08-19T01:18:50;17.78;89.02
19536;HTU21D;9913;51.168;4.124;2022-08-19T01:21:24;17.68;88.96
19536;HTU21D;9913;51.168;4.124;2022-08-19T01:24:03;17.61;89.15
19536;HTU21D;9913;51.168;4.124;2022-08-19T01:26:38;17.53;89.28
19536;HTU21D;9913;51.168;4.124;2022-08-19T01:29:09;17.51;89.43
19536;HTU21D;9913;51.168;4.124;2022-08-19T01:31:37;17.54;89.44
19536;HTU21D;9913;51.168;4.124;2022-08-19T01:34:11;17.55;89.17
19536;HTU21D;9913;51.168;4.124;2022-08-19T01:36:42;17.51;89.50
19536;HTU21D;9913;51.168;4.124;2022-08-19T01:39:24;17.44;89.59
19536;HTU21D;9913;51.168;4.124;2022-08-19T01:41:55;17.53;89.60
19536;HTU21D;9913;51.168;4.124;2022-08-19T01:44:27;17.44;89.37
19536;HTU21D;9913;51.168;4.124;2022-08-19T01:46:55;17.34;89.38
19536;HTU21D;9913;51.168;4.124;2022-08-19T01:49:24;17.25;89.79
19536;HTU21D;9913;51.168;4.124;2022-08-19T01:51:53;17.25;89.89
19536;HTU21D;9913;51.168;4.124;2022-08-19T01:54:25;17.23;89.84
19536;HTU21D;9913;51.168;4.124;2022-08-19T01:56:59;17.18;89.89
19536;HTU21D;9913;51.168;4.124;2022-08-19T01:59:30;17.15;90.11
19536;HTU21D;9913;51.168;4.124;2022-08-19T02:01:59;17.14;90.11
19536;HTU21D;9913;51.168;4.124;2022-08-19T02:04:28;17.07;90.33
19536;HTU21D;9913;51.168;4.124;2022-08-19T02:06:57;17.07;90.41
19536;HTU21D;9913;51.168;4.124;2022-08-19T02:09:27;17.05;90.41
19536;HTU21D;9913;51.168;4.124;2022-08-19T02:11:56;17.09;90.48
19536;HTU21D;9913;51.168;4.124;2022-08-19T02:14:26;17.01;90.49
19536;HTU21D;9913;51.168;4.124;2022-08-19T02:16:54;16.98;90.54
19536;HTU21D;9913;51.168;4.124;2022-08-19T02:19:26;16.93;90.57
19536;HTU21D;9913;51.168;4.124;2022-08-19T02:21:55;16.85;90.57
19536;HTU21D;9913;51.168;4.124;2022-08-19T02:24:23;16.89;90.84
19536;HTU21D;9913;51.168;4.124;2022-08-19T02:26:58;16.80;90.94
19536;HTU21D;9913;51.168;4.124;2022-08-19T02:29:26;16.79;91.02
19536;HTU21D;9913;51.168;4.124;2022-08-19T02:31:55;16.77;91.12
19536;HTU21D;9913;51.168;4.124;2022-08-19T02:34:25;16.79;91.17
19536;HTU21D;9913;51.168;4.124;2022-08-19T02:36:56;16.84;91.37
19536;HTU21D;9913;51.168;4.124;2022-08-19T02:39:29;16.77;91.19
19536;HTU21D;9913;51.168;4.124;2022-08-19T02:41:58;16.73;91.26
19536;HTU21D;9913;51.168;4.124;2022-08-19T02:44:28;16.63;91.31
19536;HTU21D;9913;51.168;4.124;2022-08-19T02:46:58;16.70;91.49
19536;HTU21D;9913;51.168;4.124;2022-08-19T02:49:27;16.69;91.49
19536;HTU21D;9913;51.168;4.124;2022-08-19T02:52:03;16.57;91.75
19536;HTU21D;9913;51.168;4.124;2022-08-19T02:54:33;16.62;92.01
19536;HTU21D;9913;51.168;4.124;2022-08-19T02:57:03;16.70;91.79
19536;HTU21D;9913;51.168;4.124;2022-08-19T02:59:32;16.67;91.89
19536;HTU21D;9913;51.168;4.124;2022-08-19T03:02:01;16.67;91.89
19536;HTU21D;9913;51.168;4.124;2022-08-19T03:04:30;16.69;91.92
19536;HTU21D;9913;51.168;4.124;2022-08-19T03:07:00;16.63;91.74
19536;HTU21D;9913;51.168;4.124;2022-08-19T03:09:41;16.60;91.98
19536;HTU21D;9913;51.168;4.124;2022-08-19T03:12:14;16.59;91.98
19536;HTU21D;9913;51.168;4.124;2022-08-19T03:14:42;16.51;91.97
19536;HTU21D;9913;51.168;4.124;2022-08-19T03:17:15;16.52;92.11
19536;HTU21D;9913;51.168;4.124;2022-08-19T03:19:44;16.48;92.11
19536;HTU21D;9913;51.168;4.124;2022-08-19T03:22:16;16.46;92.14
19536;HTU21D;9913;51.168;4.124;2022-08-19T03:24:48;16.39;92.34
19536;HTU21D;9913;51.168;4.124;2022-08-19T03:27:18;16.44;92.31
19536;HTU21D;9913;51.168;4.124;2022-08-19T03:29:48;16.43;92.26
19536;HTU21D;9913;51.168;4.124;2022-08-19T03:32:17;16.41;92.28
19536;HTU21D;9913;51.168;4.124;2022-08-19T03:34:59;16.35;92.47
19536;HTU21D;9913;51.168;4.124;2022-08-19T03:37:27;16.36;92.64
19536;HTU21D;9913;51.168;4.124;2022-08-19T03:39:56;16.36;92.64
19536;HTU21D;9913;51.168;4.124;2022-08-19T03:42:28;16.36;92.72
19536;HTU21D;9913;51.168;4.124;2022-08-19T03:45:15;16.36;92.63
19536;HTU21D;9913;51.168;4.124;2022-08-19T03:47:43;16.39;92.67
19536;HTU21D;9913;51.168;4.124;2022-08-19T03:50:12;16.32;92.59
19536;HTU21D;9913;51.168;4.124;2022-08-19T03:52:41;16.18;92.66
19536;HTU21D;9913;51.168;4.124;2022-08-19T03:55:13;16.25;93.04
19536;HTU21D;9913;51.168;4.124;2022-08-19T03:57:42;16.24;93.01
19536;HTU21D;9913;51.168;4.124;2022-08-19T04:00:13;16.27;92.88
19536;HTU21D;9913;51.168;4.124;2022-08-19T04:02:44;16.21;92.84
19536;HTU21D;9913;51.168;4.124;2022-08-19T04:05:30;16.22;93.42
19536;HTU21D;9913;51.168;4.124;2022-08-19T04:07:58;16.14;93.19
19536;HTU21D;9913;51.168;4.124;2022-08-19T04:10:27;16.18;93.46
19536;HTU21D;9913;51.168;4.124;2022-08-19T04:12:57;16.15;93.43
19536;HTU21D;9913;51.168;4.124;2022-08-19T04:15:26;16.18;93.24
19536;HTU21D;9913;51.168;4.124;2022-08-19T04:18:00;16.14;93.30
19536;HTU21D;9913;51.168;4.124;2022-08-19T04:20:29;16.04;93.29
19536;HTU21D;9913;51.168;4.124;2022-08-19T04:23:01;16.04;93.49
19536;HTU21D;9913;51.168;4.124;2022-08-19T04:25:35;16.07;93.70
19536;HTU21D;9913;51.168;4.124;2022-08-19T04:28:05;16.14;93.69
19536;HTU21D;9913;51.168;4.124;2022-08-19T04:30:38;16.13;93.53
19536;HTU21D;9913;51.168;4.124;2022-08-19T04:33:07;16.11;93.55
19536;HTU21D;9913;51.168;4.124;2022-08-19T04:35:38;16.14;93.70
19536;HTU21D;9913;51.168;4.124;2022-08-19T04:38:07;16.12;93.62
19536;HTU21D;9913;51.168;4.124;2022-08-19T04:40:40;16.10;93.76
19536;HTU21D;9913;51.168;4.124;2022-08-19T04:43:28;16.05;93.85
19536;HTU21D;9913;51.168;4.124;2022-08-19T04:45:57;16.04;93.73
19536;HTU21D;9913;51.168;4.124;2022-08-19T04:48:27;16.04;93.78
19536;HTU21D;9913;51.168;4.124;2022-08-19T04:50:58;16.05;93.75
19536;HTU21D;9913;51.168;4.124;2022-08-19T04:53:32;16.06;93.85
19536;HTU21D;9913;51.168;4.124;2022-08-19T04:56:06;16.02;93.80
19536;HTU21D;9913;51.168;4.124;2022-08-19T04:58:38;16.04;93.91
19536;HTU21D;9913;51.168;4.124;2022-08-19T05:01:08;16.06;94.14
19536;HTU21D;9913;51.168;4.124;2022-08-19T05:03:37;16.08;94.04
19536;HTU21D;9913;51.168;4.124;2022-08-19T05:06:15;16.13;94.06
19536;HTU21D;9913;51.168;4.124;2022-08-19T05:08:45;16.11;93.95
19536;HTU21D;9913;51.168;4.124;2022-08-19T05:11:17;16.18;93.88
19536;HTU21D;9913;51.168;4.124;2022-08-19T05:13:54;16.20;93.71
19536;HTU21D;9913;51.168;4.124;2022-08-19T05:16:24;16.27;93.57
19536;HTU21D;9913;51.168;4.124;2022-08-19T05:18:54;16.31;93.44
19536;HTU21D;9913;51.168;4.124;2022-08-19T05:21:41;16.34;93.14
19536;HTU21D;9913;51.168;4.124;2022-08-19T05:24:28;16.42;93.07
19536;HTU21D;9913;51.168;4.124;2022-08-19T05:26:58;16.47;92.92
19536;HTU21D;9913;51.168;4.124;2022-08-19T05:29:33;16.57;92.69
19536;HTU21D;9913;51.168;4.124;2022-08-19T05:32:06;16.59;92.51
19536;HTU21D;9913;51.168;4.124;2022-08-19T05:34:38;16.62;92.62
19536;HTU21D;9913;51.168;4.124;2022-08-19T05:37:07;16.69;92.29
19536;HTU21D;9913;51.168;4.124;2022-08-19T05:39:38;16.76;92.12
19536;HTU21D;9913;51.168;4.124;2022-08-19T05:42:09;16.81;91.85
19536;HTU21D;9913;51.168;4.124;2022-08-19T05:44:42;16.90;91.76
19536;HTU21D;9913;51.168;4.124;2022-08-19T05:47:16;16.89;91.55
19536;HTU21D;9913;51.168;4.124;2022-08-19T05:49:47;17.03;91.60
19536;HTU21D;9913;51.168;4.124;2022-08-19T05:52:16;17.17;91.27
19536;HTU21D;9913;51.168;4.124;2022-08-19T05:54:53;17.26;91.03
19536;HTU21D;9913;51.168;4.124;2022-08-19T05:57:23;17.22;90.69
19536;HTU21D;9913;51.168;4.124;2022-08-19T05:59:52;17.40;90.83
19536;HTU21D;9913;51.168;4.124;2022-08-19T06:02:29;17.52;90.66
19536;HTU21D;9913;51.168;4.124;2022-08-19T06:04:58;17.58;90.45
19536;HTU21D;9913;51.168;4.124;2022-08-19T06:07:30;17.51;90.59
19536;HTU21D;9913;51.168;4.124;2022-08-19T06:09:58;17.63;90.41
19536;HTU21D;9913;51.168;4.124;2022-08-19T06:12:27;17.69;90.31
19536;HTU21D;9913;51.168;4.124;2022-08-19T06:15:00;17.67;90.26
19536;HTU21D;9913;51.168;4.124;2022-08-19T06:17:29;17.76;90.24
19536;HTU21D;9913;51.168;4.124;2022-08-19T06:19:58;17.80;90.13
19536;HTU21D;9913;51.168;4.124;2022-08-19T06:22:30;17.96;90.27
19536;HTU21D;9913;51.168;4.124;2022-08-19T06:25:01;17.94;89.74
19536;HTU21D;9913;51.168;4.124;2022-08-19T06:27:31;18.03;89.95
19536;HTU21D;9913;51.168;4.124;2022-08-19T06:30:03;18.09;89.75
19536;HTU21D;9913;51.168;4.124;2022-08-19T06:32:31;18.09;90.00
19536;HTU21D;9913;51.168;4.124;2022-08-19T06:35:02;18.19;89.85
19536;HTU21D;9913;51.168;4.124;2022-08-19T06:37:31;18.19;89.85
19536;HTU21D;9913;51.168;4.124;2022-08-19T06:39:59;18.15;89.89
19536;HTU21D;9913;51.168;4.124;2022-08-19T06:42:35;18.24;89.71
19536;HTU21D;9913;51.168;4.124;2022-08-19T06:45:12;18.29;89.92
19536;HTU21D;9913;51.168;4.124;2022-08-19T06:47:41;18.30;89.55
19536;HTU21D;9913;51.168;4.124;2022-08-19T06:50:15;18.47;89.51
19536;HTU21D;9913;51.168;4.124;2022-08-19T06:52:47;18.39;89.41
19536;HTU21D;9913;51.168;4.124;2022-08-19T06:55:17;18.46;89.63
19536;HTU21D;9913;51.168;4.124;2022-08-19T06:57:45;18.61;89.64
19536;HTU21D;9913;51.168;4.124;2022-08-19T07:00:16;18.66;89.46
19536;HTU21D;9913;51.168;4.124;2022-08-19T07:02:45;18.72;89.59
19536;HTU21D;9913;51.168;4.124;2022-08-19T07:05:35;18.86;89.05
19536;HTU21D;9913;51.168;4.124;2022-08-19T07:08:14;18.99;88.88
19536;HTU21D;9913;51.168;4.124;2022-08-19T07:10:49;19.12;88.86
19536;HTU21D;9913;51.168;4.124;2022-08-19T07:13:25;19.12;88.62
19536;HTU21D;9913;51.168;4.124;2022-08-19T07:15:56;18.95;88.97
19536;HTU21D;9913;51.168;4.124;2022-08-19T07:18:37;19.10;88.89
19536;HTU21D;9913;51.168;4.124;2022-08-19T07:21:12;19.13;89.11
19536;HTU21D;9913;51.168;4.124;2022-08-19T07:23:42;19.10;88.73
19536;HTU21D;9913;51.168;4.124;2022-08-19T07:26:15;19.06;89.20
19536;HTU21D;9913;51.168;4.124;2022-08-19T07:28:43;19.14;89.24
19536;HTU21D;9913;51.168;4.124;2022-08-19T07:31:25;19.38;88.86
19536;HTU21D;9913;51.168;4.124;2022-08-19T07:34:00;19.45;88.83
19536;HTU21D;9913;51.168;4.124;2022-08-19T07:36:29;19.10;88.80
19536;HTU21D;9913;51.168;4.124;2022-08-19T07:39:02;19.18;89.44
19536;HTU21D;9913;51.168;4.124;2022-08-19T07:41:31;19.27;89.02
19536;HTU21D;9913;51.168;4.124;2022-08-19T07:43:59;19.42;88.54
19536;HTU21D;9913;51.168;4.124;2022-08-19T07:46:32;19.62;88.39
19536;HTU21D;9913;51.168;4.124;2022-08-19T07:49:03;19.68;88.54
19536;HTU21D;9913;51.168;4.124;2022-08-19T07:51:31;19.94;88.79
19536;HTU21D;9913;51.168;4.124;2022-08-19T07:54:03;20.13;87.64
19536;HTU21D;9913;51.168;4.124;2022-08-19T07:56:35;20.06;87.48
19536;HTU21D;9913;51.168;4.124;2022-08-19T07:59:03;20.00;87.51
19536;HTU21D;9913;51.168;4.124;2022-08-19T08:01:33;20.11;87.45
19536;HTU21D;9913;51.168;4.124;2022-08-19T08:04:08;19.87;87.21
19536;HTU21D;9913;51.168;4.124;2022-08-19T08:06:54;19.82;88.31
19536;HTU21D;9913;51.168;4.124;2022-08-19T08:09:43;19.86;88.04
19536;HTU21D;9913;51.168;4.124;2022-08-19T08:12:20;19.92;87.94
19536;HTU21D;9913;51.168;4.124;2022-08-19T08:15:03;19.84;87.69
19536;HTU21D;9913;51.168;4.124;2022-08-19T08:17:35;19.94;87.54
19536;HTU21D;9913;51.168;4.124;2022-08-19T08:20:16;19.95;87.84
19536;HTU21D;9913;51.168;4.124;2022-08-19T08:22:45;19.94;87.41
19536;HTU21D;9913;51.168;4.124;2022-08-19T08:25:32;19.87;87.74
19536;HTU21D;9913;51.168;4.124;2022-08-19T08:28:04;19.85;88.03
19536;HTU21D;9913;51.168;4.124;2022-08-19T08:30:34;19.81;88.05
19536;HTU21D;9913;51.168;4.124;2022-08-19T08:33:05;20.05;87.93
19536;HTU21D;9913;51.168;4.124;2022-08-19T08:35:35;20.15;87.38
19536;HTU21D;9913;51.168;4.124;2022-08-19T08:38:03;20.00;87.26
19536;HTU21D;9913;51.168;4.124;2022-08-19T08:40:39;19.99;87.43
19536;HTU21D;9913;51.168;4.124;2022-08-19T08:43:11;20.00;87.80
19536;HTU21D;9913;51.168;4.124;2022-08-19T08:45:48;20.15;87.91
19536;HTU21D;9913;51.168;4.124;2022-08-19T08:48:24;20.11;87.94
19536;HTU21D;9913;51.168;4.124;2022-08-19T08:51:06;20.15;87.89
19536;HTU21D;9913;51.168;4.124;2022-08-19T08:53:37;20.02;87.64
19536;HTU21D;9913;51.168;4.124;2022-08-19T08:56:10;20.04;87.70
19536;HTU21D;9913;51.168;4.124;2022-08-19T08:58:51;20.09;88.06
19536;HTU21D;9913;51.168;4.124;2022-08-19T09:01:22;20.14;87.81
19536;HTU21D;9913;51.168;4.124;2022-08-19T09:03:57;20.14;87.74
19536;HTU21D;9913;51.168;4.124;2022-08-19T09:06:36;20.13;87.90
19536;HTU21D;9913;51.168;4.124;2022-08-19T09:09:13;20.11;88.25
19536;HTU21D;9913;51.168;4.124;2022-08-19T09:11:55;20.11;87.99
19536;HTU21D;9913;51.168;4.124;2022-08-19T09:14:41;20.06;88.35
19536;HTU21D;9913;51.168;4.124;2022-08-19T09:17:18;20.15;88.53
19536;HTU21D;9913;51.168;4.124;2022-08-19T09:19:54;20.11;88.76
19536;HTU21D;9913;51.168;4.124;2022-08-19T09:22:24;19.97;89.17
19536;HTU21D;9913;51.168;4.124;2022-08-19T09:24:55;19.99;89.34
19536;HTU21D;9913;51.168;4.124;2022-08-19T09:27:26;19.96;88.86
19536;HTU21D;9913;51.168;4.124;2022-08-19T09:30:13;20.02;89.01
19536;HTU21D;9913;51.168;4.124;2022-08-19T09:32:46;19.95;89.24
19536;HTU21D;9913;51.168;4.124;2022-08-19T09:35:21;19.97;89.05
19536;HTU21D;9913;51.168;4.124;2022-08-19T09:37:56;19.99;89.21
19536;HTU21D;9913;51.168;4.124;2022-08-19T09:40:27;19.91;89.38
19536;HTU21D;9913;51.168;4.124;2022-08-19T09:43:07;19.99;89.31
19536;HTU21D;9913;51.168;4.124;2022-08-19T09:45:40;20.07;89.39
19536;HTU21D;9913;51.168;4.124;2022-08-19T09:48:08;20.20;88.90
19536;HTU21D;9913;51.168;4.124;2022-08-19T09:50:50;20.20;88.54
19536;HTU21D;9913;51.168;4.124;2022-08-19T09:53:23;20.28;88.82
19536;HTU21D;9913;51.168;4.124;2022-08-19T09:55:55;20.34;88.58
19536;HTU21D;9913;51.168;4.124;2022-08-19T09:58:33;20.43;88.30
19536;HTU21D;9913;51.168;4.124;2022-08-19T10:01:04;20.46;88.30
19536;HTU21D;9913;51.168;4.124;2022-08-19T10:03:34;20.50;88.16
19536;HTU21D;9913;51.168;4.124;2022-08-19T10:06:08;20.49;88.06
19536;HTU21D;9913;51.168;4.124;2022-08-19T10:08:47;20.50;87.88
19536;HTU21D;9913;51.168;4.124;2022-08-19T10:11:17;20.49;87.55
19536;HTU21D;9913;51.168;4.124;2022-08-19T10:14:00;20.64;87.70
19536;HTU21D;9913;51.168;4.124;2022-08-19T10:16:29;20.59;87.77
19536;HTU21D;9913;51.168;4.124;2022-08-19T10:19:09;20.68;87.50
19536;HTU21D;9913;51.168;4.124;2022-08-19T10:21:40;20.62;87.94
19536;HTU21D;9913;51.168;4.124;2022-08-19T10:24:08;20.75;87.89
19536;HTU21D;9913;51.168;4.124;2022-08-19T10:26:39;20.84;86.99
19536;HTU21D;9913;51.168;4.124;2022-08-19T10:29:12;20.94;86.99
19536;HTU21D;9913;51.168;4.124;2022-08-19T10:31:59;21.17;86.81
19536;HTU21D;9913;51.168;4.124;2022-08-19T10:34:31;21.16;86.10
19536;HTU21D;9913;51.168;4.124;2022-08-19T10:37:02;21.06;86.19
19536;HTU21D;9913;51.168;4.124;2022-08-19T10:39:37;21.23;86.18
19536;HTU21D;9913;51.168;4.124;2022-08-19T10:42:10;21.19;85.84
19536;HTU21D;9913;51.168;4.124;2022-08-19T10:44:40;21.57;85.01
19536;HTU21D;9913;51.168;4.124;2022-08-19T10:47:10;22.11;84.33
19536;HTU21D;9913;51.168;4.124;2022-08-19T10:49:52;22.44;82.65
19536;HTU21D;9913;51.168;4.124;2022-08-19T10:52:42;22.46;82.29
19536;HTU21D;9913;51.168;4.124;2022-08-19T10:55:22;22.82;81.62
19536;HTU21D;9913;51.168;4.124;2022-08-19T10:58:12;23.06;80.62
19536;HTU21D;9913;51.168;4.124;2022-08-19T11:00:50;23.06;80.34
19536;HTU21D;9913;51.168;4.124;2022-08-19T11:03:20;22.92;79.99
19536;HTU21D;9913;51.168;4.124;2022-08-19T11:06:05;22.58;80.44
19536;HTU21D;9913;51.168;4.124;2022-08-19T11:08:35;22.88;80.20
19536;HTU21D;9913;51.168;4.124;2022-08-19T11:11:07;22.58;79.66
19536;HTU21D;9913;51.168;4.124;2022-08-19T11:13:38;22.70;80.11
19536;HTU21D;9913;51.168;4.124;2022-08-19T11:16:09;23.29;80.18
19536;HTU21D;9913;51.168;4.124;2022-08-19T11:18:50;23.30;78.72
19536;HTU21D;9913;51.168;4.124;2022-08-19T11:21:21;23.64;79.15
19536;HTU21D;9913;51.168;4.124;2022-08-19T11:24:00;23.97;77.76
19536;HTU21D;9913;51.168;4.124;2022-08-19T11:26:31;23.66;77.38
19536;HTU21D;9913;51.168;4.124;2022-08-19T11:29:00;23.67;78.14
19536;HTU21D;9913;51.168;4.124;2022-08-19T11:31:34;24.03;77.21
19536;HTU21D;9913;51.168;4.124;2022-08-19T11:34:07;24.23;76.39
19536;HTU21D;9913;51.168;4.124;2022-08-19T11:36:37;24.65;76.26
19536;HTU21D;9913;51.168;4.124;2022-08-19T11:39:21;24.46;76.43
19536;HTU21D;9913;51.168;4.124;2022-08-19T11:41:51;24.28;76.50
19536;HTU21D;9913;51.168;4.124;2022-08-19T11:44:25;24.19;75.86
19536;HTU21D;9913;51.168;4.124;2022-08-19T11:46:56;23.65;76.76
19536;HTU21D;9913;51.168;4.124;2022-08-19T11:49:35;23.61;76.51
19536;HTU21D;9913;51.168;4.124;2022-08-19T11:52:09;23.51;76.96
19536;HTU21D;9913;51.168;4.124;2022-08-19T11:54:41;23.16;77.81
19536;HTU21D;9913;51.168;4.124;2022-08-19T11:57:13;23.11;78.07
19536;HTU21D;9913;51.168;4.124;2022-08-19T11:59:48;23.22;78.64
19536;HTU21D;9913;51.168;4.124;2022-08-19T12:02:17;23.06;78.31
19536;HTU21D;9913;51.168;4.124;2022-08-19T12:04:48;23.42;78.47
19536;HTU21D;9913;51.168;4.124;2022-08-19T12:07:17;23.83;76.66
19536;HTU21D;9913;51.168;4.124;2022-08-19T12:09:48;23.88;76.70
19536;HTU21D;9913;51.168;4.124;2022-08-19T12:12:16;23.83;76.46
19536;HTU21D;9913;51.168;4.124;2022-08-19T12:14:44;23.59;75.82
19536;HTU21D;9913;51.168;4.124;2022-08-19T12:17:13;23.28;76.76
19536;HTU21D;9913;51.168;4.124;2022-08-19T12:19:42;23.45;77.44
19536;HTU21D;9913;51.168;4.124;2022-08-19T12:22:10;23.16;78.55
19536;HTU21D;9913;51.168;4.124;2022-08-19T12:24:41;22.87;77.38
19536;HTU21D;9913;51.168;4.124;2022-08-19T12:27:14;23.17;77.24
19536;HTU21D;9913;51.168;4.124;2022-08-19T12:30:07;23.59;76.78
19536;HTU21D;9913;51.168;4.124;2022-08-19T12:32:36;23.89;76.23
19536;HTU21D;9913;51.168;4.124;2022-08-19T12:35:05;23.96;76.50
19536;HTU21D;9913;51.168;4.124;2022-08-19T12:37:35;24.04;75.70
19536;HTU21D;9913;51.168;4.124;2022-08-19T12:40:08;24.48;75.05
19536;HTU21D;9913;51.168;4.124;2022-08-19T12:42:40;25.09;75.55
19536;HTU21D;9913;51.168;4.124;2022-08-19T12:45:10;25.25;73.61
19536;HTU21D;9913;51.168;4.124;2022-08-19T12:47:41;24.88;73.56
19536;HTU21D;9913;51.168;4.124;2022-08-19T12:50:13;24.44;73.99
19536;HTU21D;9913;51.168;4.124;2022-08-19T12:52:41;24.26;76.20
19536;HTU21D;9913;51.168;4.124;2022-08-19T12:55:10;24.18;76.01
19536;HTU21D;9913;51.168;4.124;2022-08-19T12:57:42;24.47;75.31
19536;HTU21D;9913;51.168;4.124;2022-08-19T13:00:13;24.56;73.78
19536;HTU21D;9913;51.168;4.124;2022-08-19T13:02:43;24.78;73.72
19536;HTU21D;9913;51.168;4.124;2022-08-19T13:05:16;25.34;75.85
19536;HTU21D;9913;51.168;4.124;2022-08-19T13:07:47;26.19;70.28
19536;HTU21D;9913;51.168;4.124;2022-08-19T13:10:19;25.35;71.51
19536;HTU21D;9913;51.168;4.124;2022-08-19T13:12:52;26.01;72.14
19536;HTU21D;9913;51.168;4.124;2022-08-19T13:15:23;26.36;71.55
19536;HTU21D;9913;51.168;4.124;2022-08-19T13:17:53;25.68;70.26
19536;HTU21D;9913;51.168;4.124;2022-08-19T13:20:23;24.64;71.96
19536;HTU21D;9913;51.168;4.124;2022-08-19T13:22:55;24.18;73.93
19536;HTU21D;9913;51.168;4.124;2022-08-19T13:25:24;23.97;75.75
19536;HTU21D;9913;51.168;4.124;2022-08-19T13:27:54;24.01;73.90
19536;HTU21D;9913;51.168;4.124;2022-08-19T13:30:26;24.00;75.75
19536;HTU21D;9913;51.168;4.124;2022-08-19T13:33:12;24.11;74.17
19536;HTU21D;9913;51.168;4.124;2022-08-19T13:35:45;24.15;74.38
19536;HTU21D;9913;51.168;4.124;2022-08-19T13:38:17;24.16;73.91
19536;HTU21D;9913;51.168;4.124;2022-08-19T13:40:49;24.89;73.57
19536;HTU21D;9913;51.168;4.124;2022-08-19T13:43:20;25.19;73.38
19536;HTU21D;9913;51.168;4.124;2022-08-19T13:45:51;24.95;72.25
19536;HTU21D;9913;51.168;4.124;2022-08-19T13:48:21;24.46;73.00
19536;HTU21D;9913;51.168;4.124;2022-08-19T13:50:50;24.27;73.57
19536;HTU21D;9913;51.168;4.124;2022-08-19T13:53:20;23.75;73.56
19536;HTU21D;9913;51.168;4.124;2022-08-19T13:55:48;23.47;74.51
19536;HTU21D;9913;51.168;4.124;2022-08-19T13:58:19;23.28;76.37
19536;HTU21D;9913;51.168;4.124;2022-08-19T14:00:48;22.84;75.99
19536;HTU21D;9913;51.168;4.124;2022-08-19T14:03:19;22.64;76.52
19536;HTU21D;9913;51.168;4.124;2022-08-19T14:05:49;22.43;77.50
19536;HTU21D;9913;51.168;4.124;2022-08-19T14:08:19;22.37;77.57
19536;HTU21D;9913;51.168;4.124;2022-08-19T14:10:49;22.28;79.52
19536;HTU21D;9913;51.168;4.124;2022-08-19T14:13:20;22.13;79.93
19536;HTU21D;9913;51.168;4.124;2022-08-19T14:15:50;21.83;81.84
19536;HTU21D;9913;51.168;4.124;2022-08-19T14:18:20;21.33;84.84
19536;HTU21D;9913;51.168;4.124;2022-08-19T14:20:53;20.93;87.47
19536;HTU21D;9913;51.168;4.124;2022-08-19T14:23:24;20.70;90.31
19536;HTU21D;9913;51.168;4.124;2022-08-19T14:26:03;20.77;91.77
19536;HTU21D;9913;51.168;4.124;2022-08-19T14:28:33;20.81;92.07
19536;HTU21D;9913;51.168;4.124;2022-08-19T14:31:01;20.75;92.53
19536;HTU21D;9913;51.168;4.124;2022-08-19T14:33:30;20.54;90.37
19536;HTU21D;9913;51.168;4.124;2022-08-19T14:35:59;20.57;91.28
19536;HTU21D;9913;51.168;4.124;2022-08-19T14:38:31;20.85;91.89
19536;HTU21D;9913;51.168;4.124;2022-08-19T14:41:12;21.10;90.87
19536;HTU21D;9913;51.168;4.124;2022-08-19T14:43:45;21.33;89.81
19536;HTU21D;9913;51.168;4.124;2022-08-19T14:46:19;21.44;90.02
19536;HTU21D;9913;51.168;4.124;2022-08-19T14:48:51;21.28;88.22
19536;HTU21D;9913;51.168;4.124;2022-08-19T14:51:24;21.38;88.86
19536;HTU21D;9913;51.168;4.124;2022-08-19T14:53:54;21.54;88.44
19536;HTU21D;9913;51.168;4.124;2022-08-19T14:56:26;21.88;87.84
19536;HTU21D;9913;51.168;4.124;2022-08-19T14:58:56;22.27;87.04
19536;HTU21D;9913;51.168;4.124;2022-08-19T15:01:28;22.37;85.98
19536;HTU21D;9913;51.168;4.124;2022-08-19T15:03:59;22.86;84.36
19536;HTU21D;9913;51.168;4.124;2022-08-19T15:06:29;23.55;84.61
19536;HTU21D;9913;51.168;4.124;2022-08-19T15:08:59;24.50;83.99
19536;HTU21D;9913;51.168;4.124;2022-08-19T15:11:31;25.32;79.21
19536;HTU21D;9913;51.168;4.124;2022-08-19T15:14:02;26.40;75.60
19536;HTU21D;9913;51.168;4.124;2022-08-19T15:16:32;27.41;74.44
19536;HTU21D;9913;51.168;4.124;2022-08-19T15:19:01;26.47;74.38
19536;HTU21D;9913;51.168;4.124;2022-08-19T15:21:31;27.32;74.28
19536;HTU21D;9913;51.168;4.124;2022-08-19T15:23:59;27.04;73.24
19536;HTU21D;9913;51.168;4.124;2022-08-19T15:26:31;26.48;73.25
19536;HTU21D;9913;51.168;4.124;2022-08-19T15:29:04;27.42;71.51
19536;HTU21D;9913;51.168;4.124;2022-08-19T15:31:33;27.36;71.85
19536;HTU21D;9913;51.168;4.124;2022-08-19T15:34:07;27.98;71.22
19536;HTU21D;9913;51.168;4.124;2022-08-19T15:36:36;27.80;70.43
19536;HTU21D;9913;51.168;4.124;2022-08-19T15:39:08;27.46;69.95
19536;HTU21D;9913;51.168;4.124;2022-08-19T15:41:41;26.31;73.49
19536;HTU21D;9913;51.168;4.124;2022-08-19T15:44:14;25.07;75.80
19536;HTU21D;9913;51.168;4.124;2022-08-19T15:46:45;24.47;76.56
19536;HTU21D;9913;51.168;4.124;2022-08-19T15:49:18;23.57;79.87
19536;HTU21D;9913;51.168;4.124;2022-08-19T15:51:48;23.43;79.91
19536;HTU21D;9913;51.168;4.124;2022-08-19T15:54:20;23.76;80.15
19536;HTU21D;9913;51.168;4.124;2022-08-19T15:56:50;23.45;79.06
19536;HTU21D;9913;51.168;4.124;2022-08-19T15:59:40;22.80;82.36
19536;HTU21D;9913;51.168;4.124;2022-08-19T16:02:31;22.60;83.60